sensor_id;sensor_type;location;lat;lon;timestamp;pressure;altitude;pressure_sealevel;temperature;humidity
77062;BME280;65989;51.686;5.138;2023-05-09T00:02:22;101880.00;;;14.82;83.11
77062;BME280;65989;51.686;5.138;2023-05-09T00:04:48;101876.00;;;14.80;83.35
77062;BME280;65989;51.686;5.138;2023-05-09T00:07:13;101882.94;;;14.81;83.17
77062;BME280;65989;51.686;5.138;2023-05-09T00:09:38;101877.59;;;14.81;83.39
77062;BME280;65989;51.686;5.138;2023-05-09T00:12:04;101876.22;;;14.78;83.27
77062;BME280;65989;51.686;5.138;2023-05-09T00:14:30;101870.63;;;14.74;83.65
77062;BME280;65989;51.686;5.138;2023-05-09T00:16:57;101871.94;;;14.77;83.53
77062;BME280;65989;51.686;5.138;2023-05-09T00:19:23;101869.00;;;14.73;83.59
77062;BME280;65989;51.686;5.138;2023-05-09T00:21:49;101870.88;;;14.73;83.73
77062;BME280;65989;51.686;5.138;2023-05-09T00:24:14;101856.66;;;14.67;83.53
77062;BME280;65989;51.686;5.138;2023-05-09T00:26:39;101857.22;;;14.69;83.57
77062;BME280;65989;51.686;5.138;2023-05-09T00:29:05;101855.88;;;14.67;83.37
77062;BME280;65989;51.686;5.138;2023-05-09T00:31:30;101861.19;;;14.67;83.91
77062;BME280;65989;51.686;5.138;2023-05-09T00:33:56;101855.81;;;14.61;83.68
77062;BME280;65989;51.686;5.138;2023-05-09T00:36:21;101851.28;;;14.62;83.75
77062;BME280;65989;51.686;5.138;2023-05-09T00:38:47;101845.38;;;14.60;83.78
77062;BME280;65989;51.686;5.138;2023-05-09T00:41:13;101844.84;;;14.58;83.99
77062;BME280;65989;51.686;5.138;2023-05-09T00:43:38;101844.84;;;14.58;84.20
77062;BME280;65989;51.686;5.138;2023-05-09T00:46:04;101838.97;;;14.56;83.99
77062;BME280;65989;51.686;5.138;2023-05-09T00:48:29;101829.88;;;14.52;83.86
77062;BME280;65989;51.686;5.138;2023-05-09T00:50:55;101830.94;;;14.51;84.30
77062;BME280;65989;51.686;5.138;2023-05-09T00:53:20;101826.66;;;14.49;83.82
77062;BME280;65989;51.686;5.138;2023-05-09T00:55:46;101814.06;;;14.45;83.80
77062;BME280;65989;51.686;5.138;2023-05-09T00:58:12;101825.56;;;14.45;84.08
77062;BME280;65989;51.686;5.138;2023-05-09T01:00:38;101822.59;;;14.42;83.97
77062;BME280;65989;51.686;5.138;2023-05-09T01:03:03;101820.97;;;14.41;84.24
77062;BME280;65989;51.686;5.138;2023-05-09T01:05:39;101817.47;;;14.35;84.04
77062;BME280;65989;51.686;5.138;2023-05-09T01:11:08;101806.00;;;14.34;84.58
77062;BME280;65989;51.686;5.138;2023-05-09T01:13:51;101806.22;;;14.28;84.23
77062;BME280;65989;51.686;5.138;2023-05-09T01:16:39;101801.69;;;14.28;84.31
77062;BME280;65989;51.686;5.138;2023-05-09T01:22:06;101781.66;;;14.26;84.55
77062;BME280;65989;51.686;5.138;2023-05-09T01:27:52;101782.44;;;14.21;84.73
77062;BME280;65989;51.686;5.138;2023-05-09T01:30:23;101774.16;;;14.17;84.84
77062;BME280;65989;51.686;5.138;2023-05-09T01:32:50;101773.06;;;14.13;84.78
77062;BME280;65989;51.686;5.138;2023-05-09T01:35:16;101776.50;;;14.14;85.10
77062;BME280;65989;51.686;5.138;2023-05-09T01:37:48;101773.78;;;14.09;85.21
77062;BME280;65989;51.686;5.138;2023-05-09T01:40:16;101765.28;;;14.07;85.12
77062;BME280;65989;51.686;5.138;2023-05-09T01:42:58;101769.03;;;14.11;85.07
77062;BME280;65989;51.686;5.138;2023-05-09T01:45:26;101753.81;;;14.06;85.37
77062;BME280;65989;51.686;5.138;2023-05-09T01:47:52;101751.13;;;14.06;85.20
77062;BME280;65989;51.686;5.138;2023-05-09T01:50:18;101759.94;;;14.07;85.37
77062;BME280;65989;51.686;5.138;2023-05-09T01:52:47;101756.47;;;14.06;85.50
77062;BME280;65989;51.686;5.138;2023-05-09T01:55:14;101759.41;;;14.04;85.40
77062;BME280;65989;51.686;5.138;2023-05-09T01:57:42;101751.34;;;13.99;85.50
77062;BME280;65989;51.686;5.138;2023-05-09T02:00:09;101750.03;;;14.02;85.36
77062;BME280;65989;51.686;5.138;2023-05-09T02:02:37;101751.91;;;14.01;85.44
77062;BME280;65989;51.686;5.138;2023-05-09T02:05:03;101748.13;;;13.97;85.61
77062;BME280;65989;51.686;5.138;2023-05-09T02:07:30;101747.09;;;13.98;85.62
77062;BME280;65989;51.686;5.138;2023-05-09T02:09:57;101745.75;;;14.01;85.49
77062;BME280;65989;51.686;5.138;2023-05-09T02:12:23;101746.81;;;14.00;85.69
77062;BME280;65989;51.686;5.138;2023-05-09T02:14:49;101751.09;;;14.01;85.61
77062;BME280;65989;51.686;5.138;2023-05-09T02:17:15;101745.75;;;14.01;85.41
77062;BME280;65989;51.686;5.138;2023-05-09T02:19:42;101746.56;;;14.01;85.71
77062;BME280;65989;51.686;5.138;2023-05-09T02:22:08;101740.44;;;14.01;85.73
77062;BME280;65989;51.686;5.138;2023-05-09T02:24:33;101749.25;;;14.01;85.53
77062;BME280;65989;51.686;5.138;2023-05-09T02:27:01;101749.47;;;14.00;85.40
77062;BME280;65989;51.686;5.138;2023-05-09T02:29:33;101739.59;;;13.95;85.44
77062;BME280;65989;51.686;5.138;2023-05-09T02:32:10;101742.81;;;13.97;85.34
77062;BME280;65989;51.686;5.138;2023-05-09T02:34:37;101745.75;;;14.01;85.52
77062;BME280;65989;51.686;5.138;2023-05-09T02:37:03;101741.19;;;13.96;85.40
77062;BME280;65989;51.686;5.138;2023-05-09T02:39:29;101739.31;;;13.97;85.46
77062;BME280;65989;51.686;5.138;2023-05-09T02:41:55;101738.78;;;13.95;85.34
77062;BME280;65989;51.686;5.138;2023-05-09T02:44:20;101731.59;;;13.95;85.56
77062;BME280;65989;51.686;5.138;2023-05-09T02:46:46;101719.06;;;13.96;85.55
77062;BME280;65989;51.686;5.138;2023-05-09T02:49:11;101717.22;;;13.96;85.62
77062;BME280;65989;51.686;5.138;2023-05-09T02:51:36;101711.84;;;13.91;85.56
77062;BME280;65989;51.686;5.138;2023-05-09T02:54:02;101712.13;;;13.95;85.51
77062;BME280;65989;51.686;5.138;2023-05-09T02:56:27;101715.56;;;13.90;85.51
77062;BME280;65989;51.686;5.138;2023-05-09T02:58:53;101707.28;;;13.86;85.54
77062;BME280;65989;51.686;5.138;2023-05-09T03:01:18;101702.19;;;13.85;85.75
77062;BME280;65989;51.686;5.138;2023-05-09T03:03:43;101711.56;;;13.87;85.72
77062;BME280;65989;51.686;5.138;2023-05-09T03:06:10;101706.75;;;13.84;85.63
77062;BME280;65989;51.686;5.138;2023-05-09T03:08:35;101703.00;;;13.85;85.81
77062;BME280;65989;51.686;5.138;2023-05-09T03:11:00;101695.25;;;13.84;85.79
77062;BME280;65989;51.686;5.138;2023-05-09T03:13:26;101694.16;;;13.80;85.77
77062;BME280;65989;51.686;5.138;2023-05-09T03:15:51;101681.09;;;13.78;86.06
77062;BME280;65989;51.686;5.138;2023-05-09T03:18:17;101686.13;;;13.74;86.09
77062;BME280;65989;51.686;5.138;2023-05-09T03:20:43;101682.41;;;13.76;86.23
77062;BME280;65989;51.686;5.138;2023-05-09T03:23:08;101681.31;;;13.71;86.00
77062;BME280;65989;51.686;5.138;2023-05-09T03:25:34;101687.44;;;13.72;86.25
77062;BME280;65989;51.686;5.138;2023-05-09T03:27:59;101684.50;;;13.68;86.21
77062;BME280;65989;51.686;5.138;2023-05-09T03:30:25;101675.94;;;13.66;86.51
77062;BME280;65989;51.686;5.138;2023-05-09T03:32:51;101671.06;;;13.58;86.46
77062;BME280;65989;51.686;5.138;2023-05-09T03:35:17;101666.25;;;13.55;86.42
77062;BME280;65989;51.686;5.138;2023-05-09T03:37:42;101678.81;;;13.59;86.82
77062;BME280;65989;51.686;5.138;2023-05-09T03:40:08;101674.25;;;13.55;86.78
77062;BME280;65989;51.686;5.138;2023-05-09T03:42:33;101666.53;;;13.53;86.72
77062;BME280;65989;51.686;5.138;2023-05-09T03:44:59;101656.94;;;13.52;86.70
77062;BME280;65989;51.686;5.138;2023-05-09T03:47:24;101656.44;;;13.55;87.08
77062;BME280;65989;51.686;5.138;2023-05-09T03:49:50;101661.97;;;13.54;86.98
77062;BME280;65989;51.686;5.138;2023-05-09T03:52:15;101656.94;;;13.52;87.16
77062;BME280;65989;51.686;5.138;2023-05-09T03:54:40;101658.25;;;13.55;87.19
77062;BME280;65989;51.686;5.138;2023-05-09T03:57:06;101643.34;;;13.54;87.08
77062;BME280;65989;51.686;5.138;2023-05-09T04:02:33;101650.63;;;13.64;87.23
77062;BME280;65989;51.686;5.138;2023-05-09T04:04:59;101641.53;;;13.59;87.29
77062;BME280;65989;51.686;5.138;2023-05-09T04:07:25;101640.72;;;13.59;87.45
77062;BME280;65989;51.686;5.138;2023-05-09T04:09:50;101639.91;;;13.58;87.31
77062;BME280;65989;51.686;5.138;2023-05-09T04:12:16;101636.72;;;13.56;87.58
77062;BME280;65989;51.686;5.138;2023-05-09T04:14:41;101641.28;;;13.61;87.30
77062;BME280;65989;51.686;5.138;2023-05-09T04:17:07;101627.91;;;13.56;87.35
77062;BME280;65989;51.686;5.138;2023-05-09T04:19:32;101635.13;;;13.61;87.44
77062;BME280;65989;51.686;5.138;2023-05-09T04:21:58;101635.69;;;13.63;87.50
77062;BME280;65989;51.686;5.138;2023-05-09T04:24:23;101641.06;;;13.68;87.60
77062;BME280;65989;51.686;5.138;2023-05-09T04:26:48;101632.31;;;13.72;87.49
77062;BME280;65989;51.686;5.138;2023-05-09T04:29:15;101629.13;;;13.70;87.38
77062;BME280;65989;51.686;5.138;2023-05-09T04:31:40;101629.13;;;13.76;87.48
77062;BME280;65989;51.686;5.138;2023-05-09T04:34:05;101626.50;;;13.81;87.35
77062;BME280;65989;51.686;5.138;2023-05-09T04:36:31;101627.06;;;13.83;87.42
77062;BME280;65989;51.686;5.138;2023-05-09T04:38:58;101626.31;;;13.87;87.30
77062;BME280;65989;51.686;5.138;2023-05-09T04:41:23;101615.66;;;13.93;87.32
77062;BME280;65989;51.686;5.138;2023-05-09T04:43:49;101612.75;;;13.94;87.09
77062;BME280;65989;51.686;5.138;2023-05-09T04:46:14;101608.25;;;14.00;87.04
77062;BME280;65989;51.686;5.138;2023-05-09T04:48:40;101609.06;;;14.00;86.99
77062;BME280;65989;51.686;5.138;2023-05-09T04:51:05;101602.72;;;14.07;87.16
77062;BME280;65989;51.686;5.138;2023-05-09T04:53:31;101599.25;;;14.06;86.93
77062;BME280;65989;51.686;5.138;2023-05-09T04:55:58;101593.94;;;14.11;86.73
77062;BME280;65989;51.686;5.138;2023-05-09T04:58:23;101604.09;;;14.14;86.66
77062;BME280;65989;51.686;5.138;2023-05-09T05:00:50;101596.66;;;14.22;86.68
77062;BME280;65989;51.686;5.138;2023-05-09T05:03:16;101593.22;;;14.26;86.30
77062;BME280;65989;51.686;5.138;2023-05-09T05:05:42;101586.31;;;14.30;86.34
77062;BME280;65989;51.686;5.138;2023-05-09T05:08:07;101581.25;;;14.34;85.87
77062;BME280;65989;51.686;5.138;2023-05-09T05:10:36;101585.00;;;14.38;85.84
77062;BME280;65989;51.686;5.138;2023-05-09T05:13:01;101575.97;;;14.44;85.79
77062;BME280;65989;51.686;5.138;2023-05-09T05:15:26;101574.94;;;14.51;85.36
77062;BME280;65989;51.686;5.138;2023-05-09T05:17:52;101573.34;;;14.55;85.58
77062;BME280;65989;51.686;5.138;2023-05-09T05:20:17;101566.94;;;14.61;85.10
77062;BME280;65989;51.686;5.138;2023-05-09T05:22:43;101570.44;;;14.67;85.03
77062;BME280;65989;51.686;5.138;2023-05-09T05:25:08;101559.53;;;14.73;84.66
77062;BME280;65989;51.686;5.138;2023-05-09T05:27:34;101557.97;;;14.77;84.60
77062;BME280;65989;51.686;5.138;2023-05-09T05:29:59;101554.75;;;14.91;84.57
77062;BME280;65989;51.686;5.138;2023-05-09T05:32:25;101550.50;;;14.95;84.23
77062;BME280;65989;51.686;5.138;2023-05-09T05:34:50;101543.31;;;15.01;84.05
77062;BME280;65989;51.686;5.138;2023-05-09T05:37:16;101546.53;;;14.98;83.63
77062;BME280;65989;51.686;5.138;2023-05-09T05:39:41;101537.97;;;14.96;83.51
77062;BME280;65989;51.686;5.138;2023-05-09T05:42:06;101541.41;;;14.91;83.28
77062;BME280;65989;51.686;5.138;2023-05-09T05:44:32;101536.09;;;14.91;83.33
77062;BME280;65989;51.686;5.138;2023-05-09T05:46:57;101537.97;;;14.90;82.99
77062;BME280;65989;51.686;5.138;2023-05-09T05:49:22;101545.16;;;14.85;83.03
77062;BME280;65989;51.686;5.138;2023-05-09T05:51:49;101530.22;;;14.78;83.21
77062;BME280;65989;51.686;5.138;2023-05-09T05:54:15;101536.09;;;14.81;83.17
77062;BME280;65989;51.686;5.138;2023-05-09T05:56:40;101532.59;;;14.80;83.12
77062;BME280;65989;51.686;5.138;2023-05-09T05:59:05;101533.41;;;14.81;83.28
77062;BME280;65989;51.686;5.138;2023-05-09T06:01:31;101528.06;;;14.75;83.22
77062;BME280;65989;51.686;5.138;2023-05-09T06:03:56;101529.41;;;14.83;83.22
77062;BME280;65989;51.686;5.138;2023-05-09T06:06:22;101533.44;;;14.86;83.27
77062;BME280;65989;51.686;5.138;2023-05-09T06:08:47;101521.41;;;14.88;83.32
77062;BME280;65989;51.686;5.138;2023-05-09T06:11:16;101524.88;;;14.84;83.63
77062;BME280;65989;51.686;5.138;2023-05-09T06:13:41;101523.81;;;14.85;83.71
77062;BME280;65989;51.686;5.138;2023-05-09T06:16:07;101520.09;;;14.86;83.62
77062;BME280;65989;51.686;5.138;2023-05-09T06:18:34;101523.00;;;14.79;83.96
77062;BME280;65989;51.686;5.138;2023-05-09T06:20:59;101516.34;;;14.76;83.85
77062;BME280;65989;51.686;5.138;2023-05-09T06:23:25;101514.72;;;14.75;84.02
77062;BME280;65989;51.686;5.138;2023-05-09T06:25:50;101516.59;;;14.75;84.34
77062;BME280;65989;51.686;5.138;2023-05-09T06:28:16;101520.59;;;14.72;84.67
77062;BME280;65989;51.686;5.138;2023-05-09T06:30:41;101514.16;;;14.68;84.64
77062;BME280;65989;51.686;5.138;2023-05-09T06:33:06;101510.16;;;14.66;84.96
77062;BME280;65989;51.686;5.138;2023-05-09T06:35:32;101509.09;;;14.67;85.30
77062;BME280;65989;51.686;5.138;2023-05-09T06:37:57;101511.00;;;14.76;85.88
77062;BME280;65989;51.686;5.138;2023-05-09T06:40:22;101504.84;;;14.81;85.94
77062;BME280;65989;51.686;5.138;2023-05-09T06:42:48;101509.41;;;14.75;86.02
77062;BME280;65989;51.686;5.138;2023-05-09T06:45:13;101504.84;;;14.76;86.05
77062;BME280;65989;51.686;5.138;2023-05-09T06:47:38;101509.38;;;14.70;86.52
77062;BME280;65989;51.686;5.138;2023-05-09T06:50:04;101509.38;;;14.70;86.60
77062;BME280;65989;51.686;5.138;2023-05-09T06:52:30;101498.47;;;14.72;87.26
77062;BME280;65989;51.686;5.138;2023-05-09T06:54:55;101498.66;;;14.65;87.25
77062;BME280;65989;51.686;5.138;2023-05-09T06:57:21;101501.06;;;14.61;87.36
77062;BME280;65989;51.686;5.138;2023-05-09T06:59:46;101495.19;;;14.54;87.60
77062;BME280;65989;51.686;5.138;2023-05-09T07:02:11;101495.16;;;14.49;88.21
77062;BME280;65989;51.686;5.138;2023-05-09T07:04:37;101494.09;;;14.40;88.08
77062;BME280;65989;51.686;5.138;2023-05-09T07:07:02;101492.22;;;14.35;88.88
77062;BME280;65989;51.686;5.138;2023-05-09T07:09:27;101491.41;;;14.29;89.08
77062;BME280;65989;51.686;5.138;2023-05-09T07:11:54;101488.47;;;14.31;89.71
77062;BME280;65989;51.686;5.138;2023-05-09T07:14:19;101494.34;;;14.33;90.15
77062;BME280;65989;51.686;5.138;2023-05-09T07:16:45;101483.91;;;14.26;90.56
77062;BME280;65989;51.686;5.138;2023-05-09T07:19:11;101486.84;;;14.25;90.47
77062;BME280;65989;51.686;5.138;2023-05-09T07:21:36;101478.84;;;14.19;90.92
77062;BME280;65989;51.686;5.138;2023-05-09T07:24:02;101476.44;;;14.18;90.85
77062;BME280;65989;51.686;5.138;2023-05-09T07:26:27;101472.97;;;14.17;91.01
77062;BME280;65989;51.686;5.138;2023-05-09T07:28:53;101476.97;;;14.20;91.51
77062;BME280;65989;51.686;5.138;2023-05-09T07:31:18;101473.78;;;14.23;91.60
77062;BME280;65989;51.686;5.138;2023-05-09T07:33:44;101468.44;;;14.23;91.92
77062;BME280;65989;51.686;5.138;2023-05-09T07:36:09;101465.28;;;14.31;92.23
77062;BME280;65989;51.686;5.138;2023-05-09T07:38:38;101467.66;;;14.33;92.43
77062;BME280;65989;51.686;5.138;2023-05-09T07:41:04;101461.56;;;14.32;92.55
77062;BME280;65989;51.686;5.138;2023-05-09T07:43:29;101455.94;;;14.29;92.58
77062;BME280;65989;51.686;5.138;2023-05-09T07:45:55;101462.63;;;14.31;92.41
77062;BME280;65989;51.686;5.138;2023-05-09T07:48:20;101453.00;;;14.30;92.61
77062;BME280;65989;51.686;5.138;2023-05-09T07:50:45;101451.13;;;14.31;92.73
77062;BME280;65989;51.686;5.138;2023-05-09T07:53:11;101449.56;;;14.40;93.01
77062;BME280;65989;51.686;5.138;2023-05-09T07:55:36;101436.50;;;14.39;92.81
77062;BME280;65989;51.686;5.138;2023-05-09T07:58:02;101441.81;;;14.44;92.90
77062;BME280;65989;51.686;5.138;2023-05-09T08:00:27;101433.59;;;14.56;93.10
77062;BME280;65989;51.686;5.138;2023-05-09T08:02:52;101426.66;;;14.60;93.26
77062;BME280;65989;51.686;5.138;2023-05-09T08:05:18;101429.34;;;14.70;93.10
77062;BME280;65989;51.686;5.138;2023-05-09T08:07:44;101424.28;;;14.74;93.55
77062;BME280;65989;51.686;5.138;2023-05-09T08:10:09;101410.44;;;14.72;93.14
77062;BME280;65989;51.686;5.138;2023-05-09T08:12:35;101416.84;;;14.71;93.36
77062;BME280;65989;51.686;5.138;2023-05-09T08:15:00;101412.00;;;14.62;93.30
77062;BME280;65989;51.686;5.138;2023-05-09T08:17:26;101411.72;;;14.64;93.29
77062;BME280;65989;51.686;5.138;2023-05-09T08:19:51;101403.47;;;14.60;93.07
77062;BME280;65989;51.686;5.138;2023-05-09T08:22:17;101398.13;;;14.60;93.24
77062;BME280;65989;51.686;5.138;2023-05-09T08:24:43;101403.44;;;14.55;93.05
77062;BME280;65989;51.686;5.138;2023-05-09T08:27:10;101391.47;;;14.53;93.21
77062;BME280;65989;51.686;5.138;2023-05-09T08:29:38;101390.13;;;14.50;93.43
77062;BME280;65989;51.686;5.138;2023-05-09T08:32:04;101390.66;;;14.52;93.05
77062;BME280;65989;51.686;5.138;2023-05-09T08:34:29;101387.44;;;14.50;93.41
77062;BME280;65989;51.686;5.138;2023-05-09T08:37:01;101384.53;;;14.57;93.59
77062;BME280;65989;51.686;5.138;2023-05-09T08:39:26;101383.44;;;14.58;93.73
77062;BME280;65989;51.686;5.138;2023-05-09T08:41:57;101384.50;;;14.62;93.59
77062;BME280;65989;51.686;5.138;2023-05-09T08:44:23;101378.66;;;14.65;93.72
77062;BME280;65989;51.686;5.138;2023-05-09T08:46:51;101376.28;;;14.69;94.08
77062;BME280;65989;51.686;5.138;2023-05-09T08:49:19;101372.81;;;14.73;93.95
77062;BME280;65989;51.686;5.138;2023-05-09T08:51:46;101372.53;;;14.80;93.92
77062;BME280;65989;51.686;5.138;2023-05-09T08:54:12;101368.25;;;14.89;93.81
77062;BME280;65989;51.686;5.138;2023-05-09T08:56:38;101363.69;;;15.00;93.83
77062;BME280;65989;51.686;5.138;2023-05-09T08:59:05;101361.84;;;15.06;93.97
77062;BME280;65989;51.686;5.138;2023-05-09T09:01:32;101360.47;;;15.08;93.70
77062;BME280;65989;51.686;5.138;2023-05-09T09:04:00;101363.69;;;15.11;93.87
77062;BME280;65989;51.686;5.138;2023-05-09T09:06:27;101357.50;;;15.20;93.89
77062;BME280;65989;51.686;5.138;2023-05-09T09:08:53;101356.19;;;15.18;93.52
77062;BME280;65989;51.686;5.138;2023-05-09T09:11:20;101357.28;;;15.17;93.29
77062;BME280;65989;51.686;5.138;2023-05-09T09:13:49;101348.44;;;15.21;93.32
77062;BME280;65989;51.686;5.138;2023-05-09T09:16:20;101352.16;;;15.31;93.37
77062;BME280;65989;51.686;5.138;2023-05-09T09:18:45;101348.13;;;15.28;93.30
77062;BME280;65989;51.686;5.138;2023-05-09T09:21:14;101342.25;;;15.31;93.19
77062;BME280;65989;51.686;5.138;2023-05-09T09:23:43;101341.47;;;15.36;93.30
77062;BME280;65989;51.686;5.138;2023-05-09T09:26:08;101341.69;;;15.45;93.41
77062;BME280;65989;51.686;5.138;2023-05-09T09:28:34;101340.38;;;15.37;93.14
77062;BME280;65989;51.686;5.138;2023-05-09T09:31:00;101336.91;;;15.36;93.48
77062;BME280;65989;51.686;5.138;2023-05-09T09:33:27;101332.66;;;15.30;93.26
77062;BME280;65989;51.686;5.138;2023-05-09T09:35:54;101329.19;;;15.35;93.22
77062;BME280;65989;51.686;5.138;2023-05-09T09:38:21;101333.19;;;15.32;93.11
77062;BME280;65989;51.686;5.138;2023-05-09T09:40:54;101332.13;;;15.28;93.06
77062;BME280;65989;51.686;5.138;2023-05-09T09:43:29;101331.88;;;15.19;93.28
77062;BME280;65989;51.686;5.138;2023-05-09T09:45:54;101328.41;;;15.24;93.42
77062;BME280;65989;51.686;5.138;2023-05-09T09:48:24;101330.28;;;15.18;93.32
77062;BME280;65989;51.686;5.138;2023-05-09T09:50:53;101321.22;;;15.14;93.70
77062;BME280;65989;51.686;5.138;2023-05-09T09:53:20;101318.84;;;15.13;93.77
77062;BME280;65989;51.686;5.138;2023-05-09T09:55:50;101322.03;;;15.15;93.65
77062;BME280;65989;51.686;5.138;2023-05-09T09:58:17;101322.81;;;15.15;93.76
77062;BME280;65989;51.686;5.138;2023-05-09T10:00:43;101313.50;;;15.13;93.53
77062;BME280;65989;51.686;5.138;2023-05-09T10:03:14;101316.16;;;15.18;93.92
77062;BME280;65989;51.686;5.138;2023-05-09T10:05:40;101313.47;;;15.23;93.69
77062;BME280;65989;51.686;5.138;2023-05-09T10:08:06;101309.75;;;15.19;93.75
77062;BME280;65989;51.686;5.138;2023-05-09T10:10:36;101308.91;;;15.23;93.83
77062;BME280;65989;51.686;5.138;2023-05-09T10:13:09;101310.81;;;15.23;93.62
77062;BME280;65989;51.686;5.138;2023-05-09T10:15:36;101297.47;;;15.23;93.98
77062;BME280;65989;51.686;5.138;2023-05-09T10:18:01;101306.78;;;15.26;94.04
77062;BME280;65989;51.686;5.138;2023-05-09T10:20:32;101301.69;;;15.24;93.84
77062;BME280;65989;51.686;5.138;2023-05-09T10:23:02;101299.06;;;15.19;94.00
77062;BME280;65989;51.686;5.138;2023-05-09T10:28:05;101296.41;;;15.19;94.26
77062;BME280;65989;51.686;5.138;2023-05-09T10:30:36;101296.88;;;15.26;94.38
77062;BME280;65989;51.686;5.138;2023-05-09T10:33:08;101280.59;;;15.33;94.37
77062;BME280;65989;51.686;5.138;2023-05-09T10:35:44;101285.38;;;15.36;94.60
77062;BME280;65989;51.686;5.138;2023-05-09T10:38:11;101281.38;;;15.33;94.26
77062;BME280;65989;51.686;5.138;2023-05-09T10:40:38;101283.00;;;15.29;94.16
77062;BME280;65989;51.686;5.138;2023-05-09T10:43:04;101274.19;;;15.29;94.81
77062;BME280;65989;51.686;5.138;2023-05-09T10:45:32;101270.19;;;15.26;94.50
77062;BME280;65989;51.686;5.138;2023-05-09T10:47:58;101279.00;;;15.27;94.80
77062;BME280;65989;51.686;5.138;2023-05-09T10:50:24;101275.59;;;15.16;94.83
77062;BME280;65989;51.686;5.138;2023-05-09T10:55:57;101257.75;;;15.01;95.24
77062;BME280;65989;51.686;5.138;2023-05-09T10:58:32;101259.31;;;15.07;95.24
77062;BME280;65989;51.686;5.138;2023-05-09T11:01:02;101264.41;;;15.08;95.57
77062;BME280;65989;51.686;5.138;2023-05-09T11:09:33;101242.59;;;15.41;95.76
77062;BME280;65989;51.686;5.138;2023-05-09T11:12:10;101242.38;;;15.37;95.69
77062;BME280;65989;51.686;5.138;2023-05-09T11:17:03;101244.00;;;15.33;95.40
77062;BME280;65989;51.686;5.138;2023-05-09T11:24:48;101235.97;;;15.33;95.04
77062;BME280;65989;51.686;5.138;2023-05-09T11:27:22;101233.09;;;15.25;94.99
77062;BME280;65989;51.686;5.138;2023-05-09T11:29:58;101225.09;;;15.25;95.16
77062;BME280;65989;51.686;5.138;2023-05-09T11:32:29;101228.59;;;15.20;95.39
77062;BME280;65989;51.686;5.138;2023-05-09T11:35:12;101225.88;;;15.25;95.19
77062;BME280;65989;51.686;5.138;2023-05-09T11:37:45;101221.38;;;15.20;95.28
77062;BME280;65989;51.686;5.138;2023-05-09T11:40:11;101224.81;;;15.26;95.03
77062;BME280;65989;51.686;5.138;2023-05-09T11:42:41;101220.53;;;15.25;95.18
77062;BME280;65989;51.686;5.138;2023-05-09T11:45:08;101206.63;;;15.28;95.31
77062;BME280;65989;51.686;5.138;2023-05-09T11:47:36;101210.91;;;15.29;95.19
77062;BME280;65989;51.686;5.138;2023-05-09T11:50:01;101202.91;;;15.29;95.10
77062;BME280;65989;51.686;5.138;2023-05-09T11:52:31;101214.63;;;15.33;95.24
77062;BME280;65989;51.686;5.138;2023-05-09T11:54:57;101211.41;;;15.36;95.30
77062;BME280;65989;51.686;5.138;2023-05-09T11:57:23;101202.84;;;15.40;94.92
77062;BME280;65989;51.686;5.138;2023-05-09T11:59:48;101198.03;;;15.42;94.72
77062;BME280;65989;51.686;5.138;2023-05-09T12:02:14;101198.81;;;15.42;94.64
77062;BME280;65989;51.686;5.138;2023-05-09T12:04:39;101192.63;;;15.52;94.61
77062;BME280;65989;51.686;5.138;2023-05-09T12:07:05;101188.22;;;15.66;95.11
77062;BME280;65989;51.686;5.138;2023-05-09T12:09:32;101191.97;;;15.65;94.72
77062;BME280;65989;51.686;5.138;2023-05-09T12:12:01;101180.19;;;15.72;94.96
77062;BME280;65989;51.686;5.138;2023-05-09T12:14:33;101189.91;;;15.57;94.71
77062;BME280;65989;51.686;5.138;2023-05-09T12:16:59;101179.59;;;15.40;94.65
77062;BME280;65989;51.686;5.138;2023-05-09T12:19:25;101178.91;;;15.24;94.55
77062;BME280;65989;51.686;5.138;2023-05-09T12:21:59;101185.06;;;15.19;94.61
77062;BME280;65989;51.686;5.138;2023-05-09T12:24:26;101180.22;;;15.27;95.11
77062;BME280;65989;51.686;5.138;2023-05-09T12:26:53;101180.97;;;15.37;95.30
77062;BME280;65989;51.686;5.138;2023-05-09T12:29:19;101169.53;;;15.32;95.08
77062;BME280;65989;51.686;5.138;2023-05-09T12:31:45;101174.03;;;15.36;95.50
77062;BME280;65989;51.686;5.138;2023-05-09T12:34:11;101172.44;;;15.30;95.23
77062;BME280;65989;51.686;5.138;2023-05-09T12:36:37;101175.44;;;15.23;95.28
77062;BME280;65989;51.686;5.138;2023-05-09T12:39:08;101168.78;;;15.21;95.20
77062;BME280;65989;51.686;5.138;2023-05-09T12:41:44;101161.31;;;15.23;95.10
77062;BME280;65989;51.686;5.138;2023-05-09T12:44:20;101168.22;;;15.24;95.31
77062;BME280;65989;51.686;5.138;2023-05-09T12:47:00;101157.59;;;15.19;95.57
77062;BME280;65989;51.686;5.138;2023-05-09T12:49:26;101156.19;;;15.32;95.48
77062;BME280;65989;51.686;5.138;2023-05-09T12:51:52;101154.03;;;15.34;95.38
77062;BME280;65989;51.686;5.138;2023-05-09T12:54:20;101158.28;;;15.35;95.41
77062;BME280;65989;51.686;5.138;2023-05-09T12:56:46;101155.06;;;15.38;95.49
77062;BME280;65989;51.686;5.138;2023-05-09T12:59:12;101147.88;;;15.33;95.47
77062;BME280;65989;51.686;5.138;2023-05-09T13:01:40;101151.09;;;15.30;95.37
77062;BME280;65989;51.686;5.138;2023-05-09T13:04:06;101153.03;;;15.19;95.26
77062;BME280;65989;51.686;5.138;2023-05-09T13:06:32;101150.94;;;15.11;95.38
77062;BME280;65989;51.686;5.138;2023-05-09T13:08:58;101145.34;;;15.13;95.48
77062;BME280;65989;51.686;5.138;2023-05-09T13:11:25;101145.56;;;15.21;95.71
77062;BME280;65989;51.686;5.138;2023-05-09T13:13:53;101152.50;;;15.22;95.37
77062;BME280;65989;51.686;5.138;2023-05-09T13:16:18;101142.84;;;15.27;95.29
77062;BME280;65989;51.686;5.138;2023-05-09T13:18:44;101136.69;;;15.26;95.34
77062;BME280;65989;51.686;5.138;2023-05-09T13:21:09;101139.88;;;15.33;95.40